sensor_id;sensor_type;location;lat;lon;timestamp;P1;durP1;ratioP1;P2;durP2;ratioP2
77822;SDS011;67013;49.730;17.292;2023-05-07T00:00:08;4.70;;;3.00;;
77822;SDS011;67013;49.730;17.292;2023-05-07T00:02:41;4.40;;;3.20;;
77822;SDS011;67013;49.730;17.292;2023-05-07T00:05:11;3.70;;;2.30;;
77822;SDS011;67013;49.730;17.292;2023-05-07T00:07:41;3.90;;;2.60;;
77822;SDS011;67013;49.730;17.292;2023-05-07T00:10:11;4.00;;;2.60;;
77822;SDS011;67013;49.730;17.292;2023-05-07T00:15:10;3.90;;;2.50;;
77822;SDS011;67013;49.730;17.292;2023-05-07T00:17:40;3.80;;;2.50;;
77822;SDS011;67013;49.730;17.292;2023-05-07T00:20:10;3.80;;;2.50;;
77822;SDS011;67013;49.730;17.292;2023-05-07T00:22:40;4.40;;;3.10;;
77822;SDS011;67013;49.730;17.292;2023-05-07T00:25:09;4.20;;;3.00;;
77822;SDS011;67013;49.730;17.292;2023-05-07T00:27:39;4.00;;;2.70;;
77822;SDS011;67013;49.730;17.292;2023-05-07T00:30:09;3.90;;;2.50;;
77822;SDS011;67013;49.730;17.292;2023-05-07T00:32:39;3.70;;;2.30;;
77822;SDS011;67013;49.730;17.292;2023-05-07T00:35:09;3.20;;;1.70;;
77822;SDS011;67013;49.730;17.292;2023-05-07T00:37:38;3.40;;;2.10;;
77822;SDS011;67013;49.730;17.292;2023-05-07T00:40:08;3.80;;;2.50;;
77822;SDS011;67013;49.730;17.292;2023-05-07T00:42:38;3.70;;;2.20;;
77822;SDS011;67013;49.730;17.292;2023-05-07T00:45:09;3.30;;;2.40;;
77822;SDS011;67013;49.730;17.292;2023-05-07T00:47:38;3.60;;;2.20;;
77822;SDS011;67013;49.730;17.292;2023-05-07T00:50:09;4.00;;;2.30;;
77822;SDS011;67013;49.730;17.292;2023-05-07T00:52:38;4.10;;;2.80;;
77822;SDS011;67013;49.730;17.292;2023-05-07T00:55:09;4.50;;;2.90;;
77822;SDS011;67013;49.730;17.292;2023-05-07T00:57:41;5.00;;;3.10;;
77822;SDS011;67013;49.730;17.292;2023-05-07T01:00:12;4.40;;;3.10;;
77822;SDS011;67013;49.730;17.292;2023-05-07T01:02:42;4.10;;;2.70;;
77822;SDS011;67013;49.730;17.292;2023-05-07T01:05:13;4.60;;;3.20;;
77822;SDS011;67013;49.730;17.292;2023-05-07T01:07:45;4.10;;;2.70;;
77822;SDS011;67013;49.730;17.292;2023-05-07T01:10:15;3.90;;;2.20;;
77822;SDS011;67013;49.730;17.292;2023-05-07T01:12:45;3.90;;;2.50;;
77822;SDS011;67013;49.730;17.292;2023-05-07T01:15:17;4.00;;;2.80;;
77822;SDS011;67013;49.730;17.292;2023-05-07T01:17:47;3.80;;;2.60;;
77822;SDS011;67013;49.730;17.292;2023-05-07T01:20:17;4.20;;;2.80;;
77822;SDS011;67013;49.730;17.292;2023-05-07T01:22:47;4.20;;;3.20;;
77822;SDS011;67013;49.730;17.292;2023-05-07T01:25:16;5.20;;;3.40;;
77822;SDS011;67013;49.730;17.292;2023-05-07T01:27:47;4.20;;;2.90;;
77822;SDS011;67013;49.730;17.292;2023-05-07T01:30:16;3.90;;;2.70;;
77822;SDS011;67013;49.730;17.292;2023-05-07T01:32:49;4.10;;;2.90;;
77822;SDS011;67013;49.730;17.292;2023-05-07T01:35:24;4.40;;;2.80;;
77822;SDS011;67013;49.730;17.292;2023-05-07T01:37:58;4.20;;;2.90;;
77822;SDS011;67013;49.730;17.292;2023-05-07T01:40:29;4.10;;;2.90;;
77822;SDS011;67013;49.730;17.292;2023-05-07T01:42:58;4.30;;;2.70;;
77822;SDS011;67013;49.730;17.292;2023-05-07T01:45:28;4.20;;;2.80;;
77822;SDS011;67013;49.730;17.292;2023-05-07T01:47:59;4.30;;;2.90;;
77822;SDS011;67013;49.730;17.292;2023-05-07T01:50:29;4.70;;;3.30;;
77822;SDS011;67013;49.730;17.292;2023-05-07T01:53:00;4.30;;;2.90;;
77822;SDS011;67013;49.730;17.292;2023-05-07T01:55:30;3.70;;;2.40;;
77822;SDS011;67013;49.730;17.292;2023-05-07T01:57:59;3.90;;;2.70;;
77822;SDS011;67013;49.730;17.292;2023-05-07T02:00:29;3.30;;;2.30;;
77822;SDS011;67013;49.730;17.292;2023-05-07T02:02:59;3.80;;;2.40;;
77822;SDS011;67013;49.730;17.292;2023-05-07T02:05:28;4.00;;;2.50;;
77822;SDS011;67013;49.730;17.292;2023-05-07T02:07:58;4.30;;;3.20;;
77822;SDS011;67013;49.730;17.292;2023-05-07T02:10:27;4.40;;;3.20;;
77822;SDS011;67013;49.730;17.292;2023-05-07T02:12:56;4.40;;;2.90;;
77822;SDS011;67013;49.730;17.292;2023-05-07T02:15:28;4.30;;;2.70;;
77822;SDS011;67013;49.730;17.292;2023-05-07T02:18:01;4.10;;;2.70;;
77822;SDS011;67013;49.730;17.292;2023-05-07T02:20:32;4.80;;;2.90;;
77822;SDS011;67013;49.730;17.292;2023-05-07T02:23:02;4.10;;;2.80;;
77822;SDS011;67013;49.730;17.292;2023-05-07T02:25:32;4.50;;;3.20;;
77822;SDS011;67013;49.730;17.292;2023-05-07T02:28:01;3.90;;;2.60;;
77822;SDS011;67013;49.730;17.292;2023-05-07T02:30:31;4.40;;;3.00;;
77822;SDS011;67013;49.730;17.292;2023-05-07T02:33:00;4.30;;;2.90;;
77822;SDS011;67013;49.730;17.292;2023-05-07T02:35:30;4.10;;;2.90;;
77822;SDS011;67013;49.730;17.292;2023-05-07T02:37:59;4.10;;;2.60;;
77822;SDS011;67013;49.730;17.292;2023-05-07T02:40:29;4.60;;;2.90;;
77822;SDS011;67013;49.730;17.292;2023-05-07T02:43:00;3.80;;;2.60;;
77822;SDS011;67013;49.730;17.292;2023-05-07T02:45:29;3.90;;;2.50;;
77822;SDS011;67013;49.730;17.292;2023-05-07T02:47:59;4.10;;;2.60;;
77822;SDS011;67013;49.730;17.292;2023-05-07T02:50:28;3.90;;;2.40;;
77822;SDS011;67013;49.730;17.292;2023-05-07T02:52:59;3.70;;;2.30;;
77822;SDS011;67013;49.730;17.292;2023-05-07T02:55:28;4.10;;;2.70;;
77822;SDS011;67013;49.730;17.292;2023-05-07T02:57:58;3.50;;;2.00;;
77822;SDS011;67013;49.730;17.292;2023-05-07T03:00:27;3.50;;;2.20;;
77822;SDS011;67013;49.730;17.292;2023-05-07T03:02:57;3.90;;;2.60;;
77822;SDS011;67013;49.730;17.292;2023-05-07T03:05:26;3.50;;;2.20;;
77822;SDS011;67013;49.730;17.292;2023-05-07T03:07:56;3.20;;;1.80;;
77822;SDS011;67013;49.730;17.292;2023-05-07T03:10:25;3.90;;;2.20;;
77822;SDS011;67013;49.730;17.292;2023-05-07T03:12:55;3.20;;;1.80;;
77822;SDS011;67013;49.730;17.292;2023-05-07T03:15:24;3.10;;;1.70;;
77822;SDS011;67013;49.730;17.292;2023-05-07T03:17:54;3.70;;;2.00;;
77822;SDS011;67013;49.730;17.292;2023-05-07T03:20:23;3.10;;;1.50;;
77822;SDS011;67013;49.730;17.292;2023-05-07T03:22:53;3.30;;;1.90;;
77822;SDS011;67013;49.730;17.292;2023-05-07T03:25:22;2.90;;;1.60;;
77822;SDS011;67013;49.730;17.292;2023-05-07T03:27:52;2.70;;;1.30;;
77822;SDS011;67013;49.730;17.292;2023-05-07T03:30:21;2.50;;;1.40;;
77822;SDS011;67013;49.730;17.292;2023-05-07T03:32:51;2.70;;;1.40;;
77822;SDS011;67013;49.730;17.292;2023-05-07T03:35:21;2.90;;;1.50;;
77822;SDS011;67013;49.730;17.292;2023-05-07T03:37:50;2.90;;;1.40;;
77822;SDS011;67013;49.730;17.292;2023-05-07T03:40:20;3.00;;;1.30;;
77822;SDS011;67013;49.730;17.292;2023-05-07T03:42:49;2.40;;;1.30;;
77822;SDS011;67013;49.730;17.292;2023-05-07T03:45:19;2.60;;;1.20;;
77822;SDS011;67013;49.730;17.292;2023-05-07T03:47:48;2.40;;;1.30;;
77822;SDS011;67013;49.730;17.292;2023-05-07T03:50:18;2.30;;;1.10;;
77822;SDS011;67013;49.730;17.292;2023-05-07T03:52:47;2.80;;;1.30;;
77822;SDS011;67013;49.730;17.292;2023-05-07T03:55:17;3.00;;;1.40;;
77822;SDS011;67013;49.730;17.292;2023-05-07T03:57:46;2.60;;;1.50;;
77822;SDS011;67013;49.730;17.292;2023-05-07T04:00:17;2.60;;;1.30;;
77822;SDS011;67013;49.730;17.292;2023-05-07T04:02:48;2.50;;;1.40;;
77822;SDS011;67013;49.730;17.292;2023-05-07T04:05:18;2.70;;;1.30;;
77822;SDS011;67013;49.730;17.292;2023-05-07T04:07:47;2.60;;;1.40;;
77822;SDS011;67013;49.730;17.292;2023-05-07T04:10:17;2.70;;;1.20;;
77822;SDS011;67013;49.730;17.292;2023-05-07T04:12:46;2.40;;;1.10;;
77822;SDS011;67013;49.730;17.292;2023-05-07T04:15:16;2.50;;;1.20;;
77822;SDS011;67013;49.730;17.292;2023-05-07T04:17:46;2.90;;;1.30;;
77822;SDS011;67013;49.730;17.292;2023-05-07T04:20:16;2.70;;;1.20;;
77822;SDS011;67013;49.730;17.292;2023-05-07T04:22:46;2.20;;;1.20;;
77822;SDS011;67013;49.730;17.292;2023-05-07T04:25:15;2.30;;;1.30;;
77822;SDS011;67013;49.730;17.292;2023-05-07T04:27:45;2.60;;;1.30;;
77822;SDS011;67013;49.730;17.292;2023-05-07T04:30:15;2.60;;;1.20;;
77822;SDS011;67013;49.730;17.292;2023-05-07T04:32:45;2.30;;;1.20;;
77822;SDS011;67013;49.730;17.292;2023-05-07T04:35:14;2.40;;;1.20;;
77822;SDS011;67013;49.730;17.292;2023-05-07T04:37:44;2.30;;;1.20;;
77822;SDS011;67013;49.730;17.292;2023-05-07T04:40:14;2.80;;;1.20;;
77822;SDS011;67013;49.730;17.292;2023-05-07T04:42:43;2.90;;;1.30;;
77822;SDS011;67013;49.730;17.292;2023-05-07T04:45:13;2.30;;;1.10;;
77822;SDS011;67013;49.730;17.292;2023-05-07T04:47:42;2.10;;;1.00;;
77822;SDS011;67013;49.730;17.292;2023-05-07T04:50:12;2.50;;;1.10;;
77822;SDS011;67013;49.730;17.292;2023-05-07T04:52:41;2.30;;;1.10;;
77822;SDS011;67013;49.730;17.292;2023-05-07T04:55:11;2.40;;;1.10;;
77822;SDS011;67013;49.730;17.292;2023-05-07T04:57:41;2.10;;;1.00;;
77822;SDS011;67013;49.730;17.292;2023-05-07T05:00:12;2.40;;;1.20;;
77822;SDS011;67013;49.730;17.292;2023-05-07T05:02:43;2.50;;;1.00;;
77822;SDS011;67013;49.730;17.292;2023-05-07T05:05:12;2.50;;;1.10;;
77822;SDS011;67013;49.730;17.292;2023-05-07T05:07:42;2.20;;;1.00;;
77822;SDS011;67013;49.730;17.292;2023-05-07T05:10:11;2.00;;;1.20;;
77822;SDS011;67013;49.730;17.292;2023-05-07T05:12:42;1.80;;;0.90;;
77822;SDS011;67013;49.730;17.292;2023-05-07T05:15:12;2.30;;;1.20;;
77822;SDS011;67013;49.730;17.292;2023-05-07T05:17:42;2.50;;;1.00;;
77822;SDS011;67013;49.730;17.292;2023-05-07T05:20:11;1.90;;;0.90;;
77822;SDS011;67013;49.730;17.292;2023-05-07T05:22:42;2.20;;;1.00;;
77822;SDS011;67013;49.730;17.292;2023-05-07T05:25:11;1.70;;;0.90;;
77822;SDS011;67013;49.730;17.292;2023-05-07T05:27:41;1.70;;;0.90;;
77822;SDS011;67013;49.730;17.292;2023-05-07T05:30:11;1.90;;;0.90;;
77822;SDS011;67013;49.730;17.292;2023-05-07T05:32:41;1.80;;;0.90;;
77822;SDS011;67013;49.730;17.292;2023-05-07T05:35:11;1.70;;;0.90;;
77822;SDS011;67013;49.730;17.292;2023-05-07T05:37:40;1.70;;;1.00;;
77822;SDS011;67013;49.730;17.292;2023-05-07T05:40:10;2.00;;;1.00;;
77822;SDS011;67013;49.730;17.292;2023-05-07T05:42:40;3.20;;;1.00;;
77822;SDS011;67013;49.730;17.292;2023-05-07T05:45:10;1.70;;;0.90;;
77822;SDS011;67013;49.730;17.292;2023-05-07T05:47:40;1.40;;;0.80;;
77822;SDS011;67013;49.730;17.292;2023-05-07T05:50:10;1.30;;;0.80;;
77822;SDS011;67013;49.730;17.292;2023-05-07T05:52:39;1.80;;;0.80;;
77822;SDS011;67013;49.730;17.292;2023-05-07T05:55:09;1.00;;;0.60;;
77822;SDS011;67013;49.730;17.292;2023-05-07T05:57:39;1.80;;;0.90;;
77822;SDS011;67013;49.730;17.292;2023-05-07T06:00:10;1.70;;;0.90;;
77822;SDS011;67013;49.730;17.292;2023-05-07T06:02:40;1.80;;;0.80;;
77822;SDS011;67013;49.730;17.292;2023-05-07T06:05:10;1.90;;;0.90;;
77822;SDS011;67013;49.730;17.292;2023-05-07T06:07:39;2.10;;;1.10;;
77822;SDS011;67013;49.730;17.292;2023-05-07T06:10:09;1.60;;;0.90;;
77822;SDS011;67013;49.730;17.292;2023-05-07T06:12:39;1.50;;;0.70;;
77822;SDS011;67013;49.730;17.292;2023-05-07T06:15:09;1.00;;;0.70;;
77822;SDS011;67013;49.730;17.292;2023-05-07T06:17:39;1.60;;;0.70;;
77822;SDS011;67013;49.730;17.292;2023-05-07T06:20:09;2.00;;;0.80;;
77822;SDS011;67013;49.730;17.292;2023-05-07T06:22:39;1.90;;;0.80;;
77822;SDS011;67013;49.730;17.292;2023-05-07T06:25:09;1.30;;;0.70;;
77822;SDS011;67013;49.730;17.292;2023-05-07T06:27:38;1.10;;;0.70;;
77822;SDS011;67013;49.730;17.292;2023-05-07T06:30:08;1.60;;;0.70;;
77822;SDS011;67013;49.730;17.292;2023-05-07T06:32:39;1.80;;;0.80;;
77822;SDS011;67013;49.730;17.292;2023-05-07T06:35:09;1.90;;;0.90;;
77822;SDS011;67013;49.730;17.292;2023-05-07T06:37:40;1.40;;;0.70;;
77822;SDS011;67013;49.730;17.292;2023-05-07T06:40:10;1.90;;;0.80;;
77822;SDS011;67013;49.730;17.292;2023-05-07T06:42:40;1.80;;;0.80;;
77822;SDS011;67013;49.730;17.292;2023-05-07T06:45:10;0.90;;;0.60;;
77822;SDS011;67013;49.730;17.292;2023-05-07T06:47:40;1.70;;;0.80;;
77822;SDS011;67013;49.730;17.292;2023-05-07T06:50:10;1.30;;;0.70;;
77822;SDS011;67013;49.730;17.292;2023-05-07T06:52:39;1.50;;;0.70;;
77822;SDS011;67013;49.730;17.292;2023-05-07T06:55:09;1.10;;;0.70;;
77822;SDS011;67013;49.730;17.292;2023-05-07T06:57:38;1.70;;;0.90;;
77822;SDS011;67013;49.730;17.292;2023-05-07T07:00:09;0.80;;;0.60;;
77822;SDS011;67013;49.730;17.292;2023-05-07T07:02:40;1.40;;;0.80;;
77822;SDS011;67013;49.730;17.292;2023-05-07T07:05:10;1.20;;;0.60;;
77822;SDS011;67013;49.730;17.292;2023-05-07T07:07:39;1.20;;;0.80;;
77822;SDS011;67013;49.730;17.292;2023-05-07T07:10:09;1.10;;;0.60;;
77822;SDS011;67013;49.730;17.292;2023-05-07T07:12:39;1.90;;;0.90;;
77822;SDS011;67013;49.730;17.292;2023-05-07T07:15:09;1.40;;;0.80;;
77822;SDS011;67013;49.730;17.292;2023-05-07T07:17:39;1.50;;;0.80;;
77822;SDS011;67013;49.730;17.292;2023-05-07T07:20:10;0.90;;;0.60;;
77822;SDS011;67013;49.730;17.292;2023-05-07T07:22:39;1.10;;;0.60;;
77822;SDS011;67013;49.730;17.292;2023-05-07T07:25:09;1.10;;;0.60;;
77822;SDS011;67013;49.730;17.292;2023-05-07T07:27:39;0.90;;;0.60;;
77822;SDS011;67013;49.730;17.292;2023-05-07T07:30:09;1.10;;;0.60;;
77822;SDS011;67013;49.730;17.292;2023-05-07T07:32:39;1.70;;;0.80;;
77822;SDS011;67013;49.730;17.292;2023-05-07T07:35:10;1.30;;;0.80;;
77822;SDS011;67013;49.730;17.292;2023-05-07T07:37:39;1.60;;;0.80;;
77822;SDS011;67013;49.730;17.292;2023-05-07T07:40:10;0.80;;;0.60;;
77822;SDS011;67013;49.730;17.292;2023-05-07T07:42:40;1.40;;;0.80;;
77822;SDS011;67013;49.730;17.292;2023-05-07T07:45:10;2.10;;;1.00;;
77822;SDS011;67013;49.730;17.292;2023-05-07T07:47:40;1.70;;;0.90;;
77822;SDS011;67013;49.730;17.292;2023-05-07T07:50:10;1.50;;;0.90;;
77822;SDS011;67013;49.730;17.292;2023-05-07T07:52:40;1.80;;;1.00;;
77822;SDS011;67013;49.730;17.292;2023-05-07T07:55:10;1.40;;;0.80;;
77822;SDS011;67013;49.730;17.292;2023-05-07T07:57:40;1.60;;;0.90;;
77822;SDS011;67013;49.730;17.292;2023-05-07T08:00:10;1.90;;;1.00;;
77822;SDS011;67013;49.730;17.292;2023-05-07T08:02:41;2.00;;;0.80;;
77822;SDS011;67013;49.730;17.292;2023-05-07T08:05:11;1.40;;;0.80;;
77822;SDS011;67013;49.730;17.292;2023-05-07T08:07:41;1.40;;;0.80;;
77822;SDS011;67013;49.730;17.292;2023-05-07T08:10:12;1.80;;;0.80;;
77822;SDS011;67013;49.730;17.292;2023-05-07T08:12:47;2.10;;;1.00;;
77822;SDS011;67013;49.730;17.292;2023-05-07T08:15:17;1.20;;;0.60;;
77822;SDS011;67013;49.730;17.292;2023-05-07T08:17:46;1.60;;;0.80;;
77822;SDS011;67013;49.730;17.292;2023-05-07T08:20:16;2.00;;;0.90;;
77822;SDS011;67013;49.730;17.292;2023-05-07T08:22:46;0.70;;;0.60;;
77822;SDS011;67013;49.730;17.292;2023-05-07T08:25:15;2.10;;;1.00;;
77822;SDS011;67013;49.730;17.292;2023-05-07T08:27:44;1.10;;;0.70;;
77822;SDS011;67013;49.730;17.292;2023-05-07T08:30:15;1.30;;;0.80;;
77822;SDS011;67013;49.730;17.292;2023-05-07T08:32:44;1.20;;;0.70;;
77822;SDS011;67013;49.730;17.292;2023-05-07T08:35:14;1.60;;;0.80;;
77822;SDS011;67013;49.730;17.292;2023-05-07T08:37:43;1.50;;;0.90;;
77822;SDS011;67013;49.730;17.292;2023-05-07T08:40:13;0.90;;;0.50;;
77822;SDS011;67013;49.730;17.292;2023-05-07T08:42:42;0.90;;;0.50;;
77822;SDS011;67013;49.730;17.292;2023-05-07T08:45:13;0.90;;;0.60;;
77822;SDS011;67013;49.730;17.292;2023-05-07T08:47:44;0.60;;;0.50;;
77822;SDS011;67013;49.730;17.292;2023-05-07T08:50:14;1.00;;;0.60;;
77822;SDS011;67013;49.730;17.292;2023-05-07T08:52:45;1.60;;;0.70;;
77822;SDS011;67013;49.730;17.292;2023-05-07T08:55:15;0.90;;;0.60;;
77822;SDS011;67013;49.730;17.292;2023-05-07T08:57:46;0.80;;;0.60;;
77822;SDS011;67013;49.730;17.292;2023-05-07T09:00:16;1.30;;;0.70;;
77822;SDS011;67013;49.730;17.292;2023-05-07T09:02:45;1.00;;;0.70;;
77822;SDS011;67013;49.730;17.292;2023-05-07T09:05:15;0.90;;;0.60;;
77822;SDS011;67013;49.730;17.292;2023-05-07T09:07:45;1.00;;;0.60;;
77822;SDS011;67013;49.730;17.292;2023-05-07T09:10:15;1.20;;;0.70;;
77822;SDS011;67013;49.730;17.292;2023-05-07T09:12:45;1.10;;;0.70;;
77822;SDS011;67013;49.730;17.292;2023-05-07T09:15:15;1.50;;;0.80;;
77822;SDS011;67013;49.730;17.292;2023-05-07T09:17:45;1.40;;;0.70;;
77822;SDS011;67013;49.730;17.292;2023-05-07T09:20:14;0.90;;;0.50;;
77822;SDS011;67013;49.730;17.292;2023-05-07T09:22:45;1.40;;;0.60;;
77822;SDS011;67013;49.730;17.292;2023-05-07T09:25:18;1.20;;;0.70;;
77822;SDS011;67013;49.730;17.292;2023-05-07T09:27:57;1.80;;;0.80;;
77822;SDS011;67013;49.730;17.292;2023-05-07T09:30:28;1.30;;;0.60;;
77822;SDS011;67013;49.730;17.292;2023-05-07T09:35:27;1.50;;;0.80;;
77822;SDS011;67013;49.730;17.292;2023-05-07T09:37:58;1.80;;;0.90;;
77822;SDS011;67013;49.730;17.292;2023-05-07T09:40:29;1.50;;;0.80;;
77822;SDS011;67013;49.730;17.292;2023-05-07T09:43:09;1.50;;;0.80;;
77822;SDS011;67013;49.730;17.292;2023-05-07T09:45:40;1.30;;;0.70;;
77822;SDS011;67013;49.730;17.292;2023-05-07T09:48:10;1.70;;;0.90;;
77822;SDS011;67013;49.730;17.292;2023-05-07T09:50:48;2.20;;;1.10;;
77822;SDS011;67013;49.730;17.292;2023-05-07T09:53:19;1.90;;;0.90;;
77822;SDS011;67013;49.730;17.292;2023-05-07T09:55:50;1.50;;;0.70;;
77822;SDS011;67013;49.730;17.292;2023-05-07T09:58:20;1.50;;;0.70;;
77822;SDS011;67013;49.730;17.292;2023-05-07T10:00:51;1.80;;;0.90;;
77822;SDS011;67013;49.730;17.292;2023-05-07T10:03:22;1.80;;;0.90;;
77822;SDS011;67013;49.730;17.292;2023-05-07T10:05:56;2.00;;;0.90;;
77822;SDS011;67013;49.730;17.292;2023-05-07T10:08:28;2.30;;;1.00;;
77822;SDS011;67013;49.730;17.292;2023-05-07T10:10:58;1.80;;;0.90;;
77822;SDS011;67013;49.730;17.292;2023-05-07T10:13:29;2.00;;;1.00;;
77822;SDS011;67013;49.730;17.292;2023-05-07T10:15:58;1.90;;;0.90;;
77822;SDS011;67013;49.730;17.292;2023-05-07T10:18:28;1.90;;;1.00;;
77822;SDS011;67013;49.730;17.292;2023-05-07T10:21:01;2.60;;;1.30;;
77822;SDS011;67013;49.730;17.292;2023-05-07T10:23:34;2.80;;;1.40;;
77822;SDS011;67013;49.730;17.292;2023-05-07T10:28:37;2.60;;;1.30;;
77822;SDS011;67013;49.730;17.292;2023-05-07T10:31:14;2.40;;;1.10;;
77822;SDS011;67013;49.730;17.292;2023-05-07T10:34:08;2.70;;;1.20;;
77822;SDS011;67013;49.730;17.292;2023-05-07T10:36:43;2.60;;;1.10;;
77822;SDS011;67013;49.730;17.292;2023-05-07T10:39:14;2.50;;;1.20;;
77822;SDS011;67013;49.730;17.292;2023-05-07T10:41:43;2.30;;;1.10;;
77822;SDS011;67013;49.730;17.292;2023-05-07T10:44:13;2.60;;;1.20;;
77822;SDS011;67013;49.730;17.292;2023-05-07T10:47:04;2.10;;;1.00;;
77822;SDS011;67013;49.730;17.292;2023-05-07T10:49:38;2.60;;;1.30;;
77822;SDS011;67013;49.730;17.292;2023-05-07T10:52:45;1.70;;;0.80;;
77822;SDS011;67013;49.730;17.292;2023-05-07T10:56:23;2.20;;;1.10;;
77822;SDS011;67013;49.730;17.292;2023-05-07T10:58:56;2.50;;;1.30;;
77822;SDS011;67013;49.730;17.292;2023-05-07T11:02:08;2.80;;;1.40;;
77822;SDS011;67013;49.730;17.292;2023-05-07T11:04:40;1.60;;;0.90;;
77822;SDS011;67013;49.730;17.292;2023-05-07T11:10:00;2.10;;;1.20;;
77822;SDS011;67013;49.730;17.292;2023-05-07T11:12:48;2.30;;;1.20;;
77822;SDS011;67013;49.730;17.292;2023-05-07T11:18:12;2.20;;;1.20;;
77822;SDS011;67013;49.730;17.292;2023-05-07T11:20:53;2.50;;;1.30;;
77822;SDS011;67013;49.730;17.292;2023-05-07T11:26:28;2.30;;;1.00;;
77822;SDS011;67013;49.730;17.292;2023-05-07T11:29:11;2.00;;;0.90;;
77822;SDS011;67013;49.730;17.292;2023-05-07T11:31:42;1.90;;;0.90;;
77822;SDS011;67013;49.730;17.292;2023-05-07T11:34:12;2.50;;;1.10;;
77822;SDS011;67013;49.730;17.292;2023-05-07T11:36:43;2.10;;;1.10;;
77822;SDS011;67013;49.730;17.292;2023-05-07T11:41:58;1.50;;;0.90;;
77822;SDS011;67013;49.730;17.292;2023-05-07T11:44:41;2.00;;;0.90;;
77822;SDS011;67013;49.730;17.292;2023-05-07T11:47:12;1.80;;;0.90;;
77822;SDS011;67013;49.730;17.292;2023-05-07T11:49:49;2.00;;;1.00;;
77822;SDS011;67013;49.730;17.292;2023-05-07T11:52:20;1.90;;;1.00;;
77822;SDS011;67013;49.730;17.292;2023-05-07T11:54:51;1.90;;;1.00;;
77822;SDS011;67013;49.730;17.292;2023-05-07T11:57:22;2.90;;;1.50;;
77822;SDS011;67013;49.730;17.292;2023-05-07T11:59:53;2.50;;;1.10;;
77822;SDS011;67013;49.730;17.292;2023-05-07T12:02:24;2.00;;;1.00;;
77822;SDS011;67013;49.730;17.292;2023-05-07T12:04:54;2.30;;;1.10;;
77822;SDS011;67013;49.730;17.292;2023-05-07T12:07:24;1.90;;;0.90;;
77822;SDS011;67013;49.730;17.292;2023-05-07T12:09:53;2.10;;;1.10;;
77822;SDS011;67013;49.730;17.292;2023-05-07T12:12:23;2.20;;;1.10;;
77822;SDS011;67013;49.730;17.292;2023-05-07T12:14:53;1.80;;;0.80;;
77822;SDS011;67013;49.730;17.292;2023-05-07T12:17:23;2.80;;;1.20;;
77822;SDS011;67013;49.730;17.292;2023-05-07T12:19:52;1.50;;;0.90;;
77822;SDS011;67013;49.730;17.292;2023-05-07T12:22:22;2.20;;;1.00;;
77822;SDS011;67013;49.730;17.292;2023-05-07T12:24:57;2.50;;;1.10;;
77822;SDS011;67013;49.730;17.292;2023-05-07T12:27:26;2.20;;;0.90;;
77822;SDS011;67013;49.730;17.292;2023-05-07T12:29:57;2.00;;;1.00;;
77822;SDS011;67013;49.730;17.292;2023-05-07T12:32:27;1.70;;;0.80;;
77822;SDS011;67013;49.730;17.292;2023-05-07T12:34:56;2.50;;;1.20;;
77822;SDS011;67013;49.730;17.292;2023-05-07T12:37:26;2.10;;;1.00;;
77822;SDS011;67013;49.730;17.292;2023-05-07T12:40:04;2.10;;;1.10;;
77822;SDS011;67013;49.730;17.292;2023-05-07T12:42:36;2.50;;;1.10;;
77822;SDS011;67013;49.730;17.292;2023-05-07T12:45:09;2.10;;;1.00;;
77822;SDS011;67013;49.730;17.292;2023-05-07T12:47:43;1.70;;;0.90;;
77822;SDS011;67013;49.730;17.292;2023-05-07T12:50:12;2.30;;;1.00;;
77822;SDS011;67013;49.730;17.292;2023-05-07T12:52:43;2.40;;;1.10;;
77822;SDS011;67013;49.730;17.292;2023-05-07T12:55:13;2.00;;;0.90;;
77822;SDS011;67013;49.730;17.292;2023-05-07T12:57:45;1.80;;;1.00;;
77822;SDS011;67013;49.730;17.292;2023-05-07T13:00:17;2.30;;;1.10;;
77822;SDS011;67013;49.730;17.292;2023-05-07T13:02:59;1.90;;;1.00;;
77822;SDS011;67013;49.730;17.292;2023-05-07T13:05:29;2.00;;;1.00;;
77822;SDS011;67013;49.730;17.292;2023-05-07T13:07:59;2.30;;;1.00;;
77822;SDS011;67013;49.730;17.292;2023-05-07T13:10:28;2.50;;;1.10;;
77822;SDS011;67013;49.730;17.292;2023-05-07T13:12:59;1.90;;;0.80;;
77822;SDS011;67013;49.730;17.292;2023-05-07T13:15:28;2.40;;;1.10;;
77822;SDS011;67013;49.730;17.292;2023-05-07T13:17:58;2.10;;;1.00;;
77822;SDS011;67013;49.730;17.292;2023-05-07T13:20:27;3.00;;;1.50;;
77822;SDS011;67013;49.730;17.292;2023-05-07T13:22:57;2.50;;;1.10;;
77822;SDS011;67013;49.730;17.292;2023-05-07T13:25:28;2.10;;;1.10;;
77822;SDS011;67013;49.730;17.292;2023-05-07T13:27:58;1.80;;;0.90;;
77822;SDS011;67013;49.730;17.292;2023-05-07T13:30:27;1.70;;;1.00;;
77822;SDS011;67013;49.730;17.292;2023-05-07T13:32:57;1.90;;;1.00;;
77822;SDS011;67013;49.730;17.292;2023-05-07T13:35:26;2.30;;;1.10;;
77822;SDS011;67013;49.730;17.292;2023-05-07T13:37:56;2.00;;;1.00;;
77822;SDS011;67013;49.730;17.292;2023-05-07T13:40:25;2.00;;;1.00;;
77822;SDS011;67013;49.730;17.292;2023-05-07T13:42:56;2.30;;;1.30;;
77822;SDS011;67013;49.730;17.292;2023-05-07T13:45:28;2.00;;;1.10;;
77822;SDS011;67013;49.730;17.292;2023-05-07T13:47:57;2.80;;;1.50;;
77822;SDS011;67013;49.730;17.292;2023-05-07T13:50:27;2.90;;;1.30;;
77822;SDS011;67013;49.730;17.292;2023-05-07T13:52:57;3.50;;;1.80;;
77822;SDS011;67013;49.730;17.292;2023-05-07T13:55:28;3.10;;;1.80;;
77822;SDS011;67013;49.730;17.292;2023-05-07T13:57:58;3.30;;;1.60;;
77822;SDS011;67013;49.730;17.292;2023-05-07T14:00:29;2.70;;;1.20;;
77822;SDS011;67013;49.730;17.292;2023-05-07T14:02:59;3.10;;;1.60;;
77822;SDS011;67013;49.730;17.292;2023-05-07T14:05:28;3.90;;;2.40;;
77822;SDS011;67013;49.730;17.292;2023-05-07T14:07:58;3.00;;;1.40;;
77822;SDS011;67013;49.730;17.292;2023-05-07T14:10:27;2.70;;;1.40;;
77822;SDS011;67013;49.730;17.292;2023-05-07T14:12:58;3.10;;;1.50;;
77822;SDS011;67013;49.730;17.292;2023-05-07T14:15:27;3.20;;;1.90;;
77822;SDS011;67013;49.730;17.292;2023-05-07T14:17:58;3.10;;;1.50;;
77822;SDS011;67013;49.730;17.292;2023-05-07T14:20:28;3.00;;;1.40;;
77822;SDS011;67013;49.730;17.292;2023-05-07T14:22:57;1.90;;;1.10;;
77822;SDS011;67013;49.730;17.292;2023-05-07T14:25:27;2.70;;;1.20;;
77822;SDS011;67013;49.730;17.292;2023-05-07T14:27:56;2.20;;;1.10;;
77822;SDS011;67013;49.730;17.292;2023-05-07T14:30:26;2.10;;;1.10;;
77822;SDS011;67013;49.730;17.292;2023-05-07T14:32:55;2.30;;;1.10;;
77822;SDS011;67013;49.730;17.292;2023-05-07T14:35:25;1.50;;;0.80;;
77822;SDS011;67013;49.730;17.292;2023-05-07T14:37:54;2.10;;;1.00;;
77822;SDS011;67013;49.730;17.292;2023-05-07T14:40:23;2.40;;;1.30;;
77822;SDS011;67013;49.730;17.292;2023-05-07T14:42:53;2.10;;;1.10;;
77822;SDS011;67013;49.730;17.292;2023-05-07T14:45:23;2.30;;;1.20;;
77822;SDS011;67013;49.730;17.292;2023-05-07T14:47:53;2.40;;;1.20;;
77822;SDS011;67013;49.730;17.292;2023-05-07T14:50:22;2.90;;;1.20;;
77822;SDS011;67013;49.730;17.292;2023-05-07T14:52:52;2.70;;;1.40;;
77822;SDS011;67013;49.730;17.292;2023-05-07T14:55:21;2.80;;;1.30;;
77822;SDS011;67013;49.730;17.292;2023-05-07T14:57:51;2.30;;;1.20;;
77822;SDS011;67013;49.730;17.292;2023-05-07T15:00:20;2.30;;;1.20;;
77822;SDS011;67013;49.730;17.292;2023-05-07T15:02:50;2.60;;;1.40;;
77822;SDS011;67013;49.730;17.292;2023-05-07T15:05:20;2.50;;;1.20;;
77822;SDS011;67013;49.730;17.292;2023-05-07T15:07:49;3.00;;;1.70;;
77822;SDS011;67013;49.730;17.292;2023-05-07T15:10:18;2.70;;;1.30;;
77822;SDS011;67013;49.730;17.292;2023-05-07T15:12:48;1.90;;;1.10;;